Time;durP1;ratioP1;P1;durP2;ratioP2;P2;SDS_P1;SDS_P2;PMS_P1;PMS_P2;Temp;Humidity;BMP_temperature;BMP_pressure;BME280_temperature;BME280_humidity;BME280_pressure;Samples;Min_cycle;Max_cycle;Signal;HPM_P1;HPM_P2
2023/09/10 00:01:21;;;;;;;13.60;7.67;;;20.40;1.00;;;;;;5029475;28;20450;-76
2023/09/10 00:03:46;;;;;;;13.10;7.50;;;20.50;1.00;;;;;;5029443;28;20393;-76
2023/09/10 00:06:12;;;;;;;17.17;6.80;;;20.50;99.90;;;;;;5029340;28;20739;-76
2023/09/10 00:08:37;;;;;;;16.00;8.70;;;20.40;1.00;;;;;;5030452;28;20862;-76
2023/09/10 00:11:05;;;;;;;14.50;7.50;;;20.40;1.00;;;;;;5012420;28;20419;-76
2023/09/10 00:13:30;;;;;;;13.95;8.40;;;20.30;1.00;;;;;;5013553;28;20399;-74
2023/09/10 00:15:57;;;;;;;15.85;7.55;;;20.10;1.00;;;;;;5032154;28;20397;-74
2023/09/10 00:18:23;;;;;;;15.55;7.95;;;20.10;1.00;;;;;;5031768;28;20468;-74
2023/09/10 00:20:53;;;;;;;16.00;7.73;;;20.20;1.00;;;;;;5050023;28;20509;-74
2023/09/10 00:23:18;;;;;;;13.88;7.30;;;20.30;1.00;;;;;;5050178;28;20905;-74
2023/09/10 00:25:44;;;;;;;15.93;6.63;;;20.40;1.00;;;;;;5031411;28;20389;-74
2023/09/10 00:28:11;;;;;;;14.90;6.73;;;20.50;99.90;;;;;;5031093;28;20432;-74
2023/09/10 00:30:36;;;;;;;12.90;6.67;;;20.40;99.90;;;;;;5048888;28;20409;-74
2023/09/10 00:33:02;;;;;;;13.48;6.82;;;20.30;1.00;;;;;;5031148;28;20919;-74
2023/09/10 00:35:28;;;;;;;14.88;7.05;;;20.30;1.00;;;;;;5030750;28;20382;-74
2023/09/10 00:37:53;;;;;;;17.03;7.43;;;20.30;1.00;;;;;;5031343;28;20425;-74
2023/09/10 00:40:19;;;;;;;13.37;7.50;;;20.20;1.00;;;;;;5042887;28;20808;-74
2023/09/10 00:42:46;;;;;;;14.35;7.28;;;20.10;1.00;;;;;;5048010;28;20402;-74
2023/09/10 00:45:12;;;;;;;15.05;7.80;;;20.10;1.00;;;;;;5047993;28;20749;-74
2023/09/10 00:47:42;;;;;;;14.60;7.38;;;20.10;1.00;;;;;;5046433;28;20403;-74
2023/09/10 00:50:09;;;;;;;16.23;7.80;;;20.20;1.00;;;;;;5028972;28;20975;-74
2023/09/10 00:52:40;;;;;;;16.03;7.13;;;20.10;1.00;;;;;;5029200;28;20394;-74
2023/09/10 00:55:06;;;;;;;16.90;8.80;;;20.10;1.00;;;;;;5011510;28;20470;-74
2023/09/10 00:57:32;;;;;;;13.63;6.25;;;20.20;1.00;;;;;;5028794;28;20845;-74
2023/09/10 00:59:58;;;;;;;14.75;6.60;;;20.20;1.00;;;;;;5011366;28;20482;-74
2023/09/10 01:02:24;;;;;;;16.13;7.10;;;20.10;1.00;;;;;;5029564;28;20718;-74
2023/09/10 01:04:51;;;;;;;13.17;7.30;;;20.10;1.00;;;;;;5015544;28;20745;-74
2023/09/10 01:07:16;;;;;;;15.90;7.38;;;20.10;1.00;;;;;;5030975;28;20397;-74
2023/09/10 01:09:42;;;;;;;16.65;7.45;;;20.20;1.00;;;;;;5049010;28;20404;-74
2023/09/10 01:12:27;;;;;;;11.88;6.53;;;20.20;1.00;;;;;;5049509;28;20469;-74
2023/09/10 01:15:14;;;;;;;14.18;7.18;;;20.20;1.00;;;;;;5030842;28;20488;-74
2023/09/10 01:18:14;;;;;;;14.90;8.18;;;20.20;1.00;;;;;;5031553;28;20756;-74
2023/09/10 01:20:54;;;;;;;15.15;7.45;;;20.10;1.00;;;;;;5029304;28;20398;-76
2023/09/10 01:23:36;;;;;;;15.45;8.45;;;20.10;1.00;;;;;;5051230;28;20738;-76
2023/09/10 01:26:02;;;;;;;16.50;8.07;;;20.10;1.00;;;;;;5048858;28;20400;-76
2023/09/10 01:28:27;;;;;;;16.58;7.63;;;20.20;1.00;;;;;;5032344;28;20413;-76
2023/09/10 01:30:53;;;;;;;15.20;6.82;;;20.20;1.00;;;;;;5031170;28;20554;-76
2023/09/10 01:33:30;;;;;;;13.43;7.20;;;20.20;1.00;;;;;;5028111;28;20433;-76
2023/09/10 01:36:05;;;;;;;12.35;7.07;;;20.30;1.00;;;;;;5031221;28;20410;-74
2023/09/10 01:38:43;;;;;;;14.30;7.20;;;20.10;1.00;;;;;;5031953;28;20846;-74
2023/09/10 01:41:19;;;;;;;17.03;7.63;;;19.90;1.00;;;;;;5012384;28;20417;-74
2023/09/10 01:43:45;;;;;;;15.20;7.70;;;20.00;1.00;;;;;;5008962;28;20416;-74
2023/09/10 01:46:12;;;;;;;14.73;6.55;;;20.00;1.00;;;;;;5014509;28;20463;-75
2023/09/10 01:48:37;;;;;;;13.32;7.22;;;20.00;1.00;;;;;;5011703;28;20482;-75
2023/09/10 01:51:03;;;;;;;15.48;6.80;;;20.00;1.00;;;;;;5011756;28;20456;-75
2023/09/10 01:53:29;;;;;;;16.70;7.68;;;20.10;1.00;;;;;;4995318;28;20400;-75
2023/09/10 01:55:55;;;;;;;17.10;7.60;;;20.10;1.00;;;;;;5013097;28;20399;-75
2023/09/10 01:58:20;;;;;;;16.00;7.53;;;20.20;1.00;;;;;;5012002;28;20400;-75
2023/09/10 02:00:46;;;;;;;17.23;7.10;;;20.10;1.00;;;;;;5011445;28;20415;-75
2023/09/10 02:03:12;;;;;;;13.70;7.27;;;20.10;1.00;;;;;;5012495;28;20451;-77
2023/09/10 02:05:37;;;;;;;16.03;7.37;;;20.10;1.00;;;;;;5013673;28;20404;-76
2023/09/10 02:08:04;;;;;;;19.23;7.70;;;20.00;1.00;;;;;;5013173;28;20720;-75
2023/09/10 02:10:32;;;;;;;12.05;6.43;;;20.00;1.00;;;;;;5012868;28;20432;-75
2023/09/10 02:12:57;;;;;;;13.88;7.10;;;20.00;1.00;;;;;;5020453;28;20381;-75
2023/09/10 02:15:22;;;;;;;16.90;7.50;;;20.10;1.00;;;;;;5012878;28;20799;-75
2023/09/10 02:17:48;;;;;;;12.80;7.73;;;20.10;1.00;;;;;;5012966;28;20388;-75
2023/09/10 02:20:14;;;;;;;18.27;7.87;;;20.00;1.00;;;;;;5016330;28;20465;-75
2023/09/10 02:22:41;;;;;;;12.77;6.68;;;20.00;1.00;;;;;;5016470;28;20399;-75
2023/09/10 02:25:08;;;;;;;14.30;7.00;;;19.80;1.00;;;;;;5033092;28;20409;-75
2023/09/10 02:27:35;;;;;;;12.07;6.77;;;19.70;1.00;;;;;;5032034;28;20395;-75
2023/09/10 02:30:07;;;;;;;14.07;7.05;;;19.80;1.00;;;;;;5025265;28;20814;-75
2023/09/10 02:32:33;;;;;;;14.90;6.85;;;19.90;1.00;;;;;;5014452;28;20411;-75
2023/09/10 02:34:58;;;;;;;14.48;7.03;;;19.80;1.00;;;;;;5014754;28;20902;-75
2023/09/10 02:37:25;;;;;;;13.37;7.07;;;19.70;1.00;;;;;;5031953;28;20399;-76
2023/09/10 02:39:50;;;;;;;13.23;6.88;;;19.60;1.00;;;;;;5032045;28;20466;-75
2023/09/10 02:42:17;;;;;;;15.68;7.90;;;19.40;1.00;;;;;;5030113;28;20434;-75
2023/09/10 02:44:43;;;;;;;16.27;8.10;;;19.40;1.00;;;;;;5032016;28;20707;-75
2023/09/10 02:47:08;;;;;;;13.82;7.30;;;19.60;1.00;;;;;;5033179;28;20403;-75
2023/09/10 02:49:34;;;;;;;14.10;6.43;;;19.70;1.00;;;;;;5031791;28;20456;-75
2023/09/10 02:51:59;;;;;;;13.10;7.10;;;19.60;1.00;;;;;;5013656;28;20419;-75
2023/09/10 02:54:25;;;;;;;16.10;8.07;;;19.30;1.00;;;;;;5013744;28;20439;-75
2023/09/10 02:56:51;;;;;;;14.97;7.80;;;19.20;1.00;;;;;;5032223;28;20430;-75
2023/09/10 02:59:21;;;;;;;18.85;8.50;;;19.20;1.00;;;;;;5038343;28;20488;-75
2023/09/10 03:01:47;;;;;;;15.73;7.72;;;19.30;1.00;;;;;;5033712;28;20475;-75
2023/09/10 03:04:14;;;;;;;17.27;7.60;;;19.40;1.00;;;;;;5044313;28;20383;-75
2023/09/10 03:06:45;;;;;;;14.80;7.00;;;19.40;1.00;;;;;;5013657;28;20387;-76
2023/09/10 03:09:13;;;;;;;13.55;7.03;;;19.20;1.00;;;;;;5031327;28;20403;-75
2023/09/10 03:11:39;;;;;;;13.65;6.90;;;19.10;1.00;;;;;;5013501;28;20506;-75
2023/09/10 03:14:05;;;;;;;14.15;7.22;;;19.20;1.00;;;;;;5031418;28;20965;-75
2023/09/10 03:16:34;;;;;;;12.98;6.15;;;19.10;1.00;;;;;;5031027;28;20409;-75
2023/09/10 03:18:59;;;;;;;12.68;6.70;;;19.00;1.00;;;;;;5030831;28;20463;-75
2023/09/10 03:21:26;;;;;;;17.27;8.50;;;19.10;1.00;;;;;;5022355;28;20385;-76
2023/09/10 03:23:51;;;;;;;15.45;7.38;;;19.00;1.00;;;;;;5033207;28;20408;-76
2023/09/10 03:26:17;;;;;;;14.63;7.87;;;18.90;1.00;;;;;;5051353;28;20385;-75
2023/09/10 03:28:42;;;;;;;15.03;7.37;;;18.80;1.00;;;;;;5033102;28;20393;-75
2023/09/10 03:31:08;;;;;;;16.40;7.60;;;18.70;1.00;;;;;;5050453;28;20417;-75
2023/09/10 03:33:34;;;;;;;18.50;9.60;;;18.80;1.00;;;;;;5029333;28;20418;-75
2023/09/10 03:35:59;;;;;;;20.57;8.60;;;19.00;2.30;;;;;;5030824;28;20854;-75
2023/09/10 03:38:25;;;;;;;18.03;8.63;;;19.00;1.00;;;;;;5019227;28;20396;-75
2023/09/10 03:40:51;;;;;;;15.17;7.10;;;18.90;1.00;;;;;;5010178;28;20397;-75
2023/09/10 03:43:16;;;;;;;17.03;8.47;;;18.80;1.00;;;;;;5009369;28;20409;-73
2023/09/10 03:45:42;;;;;;;19.00;8.50;;;18.80;1.00;;;;;;5010318;28;20396;-73
2023/09/10 03:48:08;;;;;;;15.73;8.02;;;18.90;1.00;;;;;;5010528;28;20401;-74
2023/09/10 03:50:34;;;;;;;15.83;8.37;;;18.90;1.00;;;;;;5009437;28;20417;-73
2023/09/10 03:53:00;;;;;;;14.57;8.02;;;18.90;1.00;;;;;;5009559;28;20385;-74
2023/09/10 03:55:26;;;;;;;15.30;8.43;;;18.90;1.00;;;;;;5007413;28;20401;-75
2023/09/10 03:57:55;;;;;;;19.80;7.63;;;18.80;1.00;;;;;;5009997;28;20480;-75
2023/09/10 04:00:42;;;;;;;17.40;8.57;;;18.80;1.00;;;;;;5011453;28;20440;-75
2023/09/10 04:03:08;;;;;;;14.00;7.73;;;18.80;1.00;;;;;;4993331;28;20420;-75
2023/09/10 04:05:33;;;;;;;14.18;6.95;;;18.80;1.00;;;;;;5009704;28;20874;-75
2023/09/10 04:07:59;;;;;;;13.60;6.80;;;18.80;1.00;;;;;;5011025;28;20751;-75
2023/09/10 04:10:26;;;;;;;17.20;8.47;;;18.70;1.00;;;;;;5008838;28;20424;-76
2023/09/10 04:12:52;;;;;;;15.82;7.70;;;18.70;1.00;;;;;;4998381;28;20415;-75
2023/09/10 04:15:17;;;;;;;16.70;7.90;;;18.70;1.00;;;;;;4991307;28;20422;-75
2023/09/10 04:17:44;;;;;;;16.60;7.90;;;18.80;1.00;;;;;;4990987;28;20430;-75
2023/09/10 04:20:10;;;;;;;17.77;8.10;;;18.60;1.00;;;;;;4989723;28;20453;-75
2023/09/10 04:22:35;;;;;;;15.20;7.65;;;18.50;1.00;;;;;;4989371;28;20398;-75
2023/09/10 04:25:01;;;;;;;13.60;7.43;;;18.50;1.00;;;;;;5008396;28;20452;-75
2023/09/10 04:27:27;;;;;;;13.83;7.70;;;18.60;1.00;;;;;;5009383;28;20397;-75
2023/09/10 04:29:54;;;;;;;14.85;6.90;;;18.60;1.00;;;;;;4997347;28;20402;-75
2023/09/10 04:32:20;;;;;;;17.43;8.10;;;18.60;1.00;;;;;;4992720;28;20423;-76
2023/09/10 04:34:45;;;;;;;15.18;8.07;;;18.50;1.00;;;;;;5029020;28;20569;-75
2023/09/10 04:37:11;;;;;;;17.08;8.30;;;18.40;7.00;;;;;;5028942;28;20750;-75
2023/09/10 04:39:37;;;;;;;18.58;8.32;;;18.30;10.90;;;;;;5012403;28;20387;-75
2023/09/10 04:42:03;;;;;;;14.30;7.70;;;18.30;10.20;;;;;;5030247;28;20414;-75
2023/09/10 04:44:29;;;;;;;13.27;7.07;;;18.30;18.40;;;;;;5030384;28;20723;-75
2023/09/10 04:46:54;;;;;;;16.67;7.63;;;18.50;1.00;;;;;;5031195;28;20383;-75
2023/09/10 04:49:20;;;;;;;13.50;7.00;;;18.60;1.00;;;;;;5012929;28;20755;-76
2023/09/10 04:51:46;;;;;;;14.10;7.20;;;18.60;1.00;;;;;;5030530;28;20442;-76
2023/09/10 04:54:11;;;;;;;16.20;7.00;;;18.50;1.00;;;;;;5030892;28;20429;-75
2023/09/10 04:56:37;;;;;;;13.57;7.50;;;18.50;1.00;;;;;;5013128;28;20487;-75
2023/09/10 04:59:02;;;;;;;17.80;8.10;;;18.40;1.00;;;;;;5030684;28;20912;-75
2023/09/10 05:01:28;;;;;;;13.23;7.00;;;18.40;1.00;;;;;;5042297;28;20409;-75
2023/09/10 05:03:54;;;;;;;12.00;7.40;;;18.30;1.00;;;;;;5049845;28;20403;-75
2023/09/10 05:06:20;;;;;;;15.10;7.28;;;18.30;12.00;;;;;;5035735;28;20441;-75
2023/09/10 05:08:46;;;;;;;19.30;8.33;;;18.30;18.30;;;;;;5043802;28;20399;-76
2023/09/10 05:11:12;;;;;;;19.38;7.53;;;18.30;12.70;;;;;;5031997;28;20433;-73
2023/09/10 05:13:38;;;;;;;15.63;7.95;;;18.40;1.00;;;;;;5037315;28;20391;-73
2023/09/10 05:16:03;;;;;;;14.45;7.70;;;18.40;1.00;;;;;;5036693;28;20405;-73
2023/09/10 05:18:29;;;;;;;16.07;8.83;;;18.40;2.50;;;;;;5041016;28;20426;-73
2023/09/10 05:20:55;;;;;;;14.47;7.20;;;18.50;4.30;;;;;;5024646;28;20391;-73
2023/09/10 05:23:26;;;;;;;12.82;7.18;;;18.50;1.00;;;;;;5025939;28;20391;-75
2023/09/10 05:25:52;;;;;;;19.08;8.13;;;18.60;1.00;;;;;;5039866;28;20959;-75
2023/09/10 05:28:17;;;;;;;15.57;8.02;;;18.80;1.00;;;;;;5019130;28;20399;-75
2023/09/10 05:30:43;;;;;;;14.50;7.73;;;18.90;1.00;;;;;;5017486;28;20501;-74
2023/09/10 05:33:09;;;;;;;16.40;7.20;;;19.00;1.00;;;;;;5033345;28;20411;-74
2023/09/10 05:35:34;;;;;;;13.57;7.77;;;19.00;1.00;;;;;;5033073;28;20394;-75
2023/09/10 05:38:01;;;;;;;13.40;7.75;;;19.20;1.00;;;;;;5028018;28;20397;-75
2023/09/10 05:40:27;;;;;;;13.45;6.88;;;19.30;1.00;;;;;;5033498;28;20900;-76
2023/09/10 05:42:52;;;;;;;14.27;7.67;;;19.30;1.00;;;;;;5033248;28;20413;-75
2023/09/10 05:45:19;;;;;;;16.23;8.37;;;19.30;1.00;;;;;;5017494;28;20393;-75
2023/09/10 05:47:44;;;;;;;18.80;9.50;;;19.30;1.00;;;;;;5032746;28;20811;-76
2023/09/10 05:50:10;;;;;;;14.90;7.20;;;19.60;1.00;;;;;;5033018;28;20409;-75
2023/09/10 05:52:36;;;;;;;14.32;7.60;;;19.70;1.00;;;;;;5032452;28;20484;-75
2023/09/10 05:55:02;;;;;;;13.87;7.73;;;20.00;1.00;;;;;;5049206;28;20416;-75
2023/09/10 05:57:29;;;;;;;14.50;7.30;;;20.10;1.00;;;;;;5032848;28;21001;-75
2023/09/10 05:59:55;;;;;;;16.77;8.55;;;20.20;1.00;;;;;;5050743;28;20385;-76
2023/09/10 06:02:21;;;;;;;14.65;7.68;;;20.40;1.00;;;;;;5033998;28;20744;-75
2023/09/10 06:04:46;;;;;;;14.45;7.50;;;20.80;1.00;;;;;;5035766;28;20388;-75
2023/09/10 06:07:13;;;;;;;15.17;7.60;;;21.30;99.90;;;;;;5034165;28;20417;-75
2023/09/10 06:09:38;;;;;;;14.00;7.23;;;22.40;1.00;;;;;;5034080;28;20488;-76
2023/09/10 06:12:04;;;;;;;15.17;6.90;;;23.40;1.00;;;;;;5032864;28;20547;-76
2023/09/10 06:14:33;;;;;;;13.30;7.70;;;24.60;99.90;;;;;;5051785;28;20397;-77
2023/09/10 06:17:01;;;;;;;14.20;7.15;;;25.60;99.90;;;;;;5034145;28;20399;-76
2023/09/10 06:19:26;;;;;;;12.63;7.40;;;26.40;46.90;;;;;;5032939;28;20456;-77
2023/09/10 06:21:52;;;;;;;14.23;7.83;;;27.30;1.00;;;;;;5051950;28;20819;-75
2023/09/10 06:24:17;;;;;;;14.83;7.80;;;27.90;1.00;;;;;;5054301;28;20389;-75
2023/09/10 06:26:43;;;;;;;19.23;7.23;;;28.60;1.00;;;;;;5035651;28;20405;-75
2023/09/10 06:29:09;;;;;;;15.55;7.35;;;29.40;1.00;;;;;;5020860;28;20886;-75
2023/09/10 06:31:34;;;;;;;17.98;8.10;;;30.00;1.00;;;;;;5015853;28;20862;-75
2023/09/10 06:34:01;;;;;;;14.50;7.37;;;30.00;1.00;;;;;;5032103;28;20419;-75
2023/09/10 06:36:27;;;;;;;14.32;7.60;;;30.40;1.00;;;;;;5033583;28;20466;-75
2023/09/10 06:38:52;;;;;;;13.13;7.43;;;30.40;99.90;;;;;;5033476;28;20430;-75
2023/09/10 06:41:18;;;;;;;13.93;6.97;;;30.70;99.90;;;;;;5033367;28;20390;-75
2023/09/10 06:43:44;;;;;;;15.73;7.80;;;30.80;99.90;;;;;;5014398;28;20745;-75
2023/09/10 06:46:10;;;;;;;12.47;7.07;;;31.10;99.90;;;;;;5014899;28;20387;-75
2023/09/10 06:48:36;;;;;;;13.90;7.50;;;31.20;99.90;;;;;;5014474;28;20406;-75
2023/09/10 06:51:02;;;;;;;13.47;7.10;;;30.80;99.90;;;;;;5043048;28;20421;-75
2023/09/10 06:53:28;;;;;;;16.90;8.10;;;30.70;99.90;;;;;;5023884;28;20416;-75
2023/09/10 06:55:54;;;;;;;13.52;8.27;;;30.90;99.90;;;;;;5034245;28;20405;-75
2023/09/10 06:58:20;;;;;;;15.85;8.35;;;31.40;99.90;;;;;;5034866;28;20755;-75
2023/09/10 07:00:45;;;;;;;16.08;8.57;;;31.40;99.90;;;;;;5052194;28;20385;-75
2023/09/10 07:03:13;;;;;;;12.68;7.95;;;31.60;99.90;;;;;;5047186;28;20455;-75
2023/09/10 07:05:41;;;;;;;13.02;8.20;;;31.90;99.90;;;;;;5053923;28;20398;-75
2023/09/10 07:08:11;;;;;;;16.02;8.23;;;32.80;99.90;;;;;;5054138;28;20493;-75
2023/09/10 07:10:37;;;;;;;14.05;8.30;;;32.40;99.90;;;;;;5035083;28;20413;-75
2023/09/10 07:13:08;;;;;;;15.85;8.98;;;31.80;99.90;;;;;;5034081;28;21221;-77
2023/09/10 07:15:36;;;;;;;13.90;8.30;;;31.90;99.90;;;;;;5035482;28;20406;-77
2023/09/10 07:18:02;;;;;;;14.50;8.82;;;31.80;99.90;;;;;;5037174;28;20749;-76
2023/09/10 07:20:29;;;;;;;16.88;7.90;;;31.90;99.90;;;;;;5034396;28;20412;-76
2023/09/10 07:22:54;;;;;;;17.53;8.10;;;32.30;99.90;;;;;;5052191;28;20382;-76
2023/09/10 07:25:20;;;;;;;16.10;8.93;;;32.60;99.90;;;;;;5034206;28;20824;-76
2023/09/10 07:27:45;;;;;;;14.43;8.10;;;32.40;99.90;;;;;;5033578;28;20392;-77
2023/09/10 07:30:11;;;;;;;15.80;9.00;;;32.80;99.90;;;;;;5033316;28;20436;-75
2023/09/10 07:32:37;;;;;;;14.93;8.18;;;33.80;99.90;;;;;;5029351;28;20418;-75
2023/09/10 07:35:07;;;;;;;14.50;8.50;;;34.70;99.90;;;;;;5030132;28;20395;-75
2023/09/10 07:37:33;;;;;;;13.70;8.82;;;34.10;99.90;;;;;;5030005;28;20869;-75
2023/09/10 07:39:58;;;;;;;13.85;7.38;;;33.80;99.90;;;;;;5029827;28;20409;-76
2023/09/10 07:42:24;;;;;;;12.80;7.60;;;33.70;99.90;;;;;;5015358;28;20501;-75
2023/09/10 07:44:49;;;;;;;13.10;7.53;;;34.20;99.90;;;;;;5029820;28;20399;-75
2023/09/10 07:47:15;;;;;;;14.10;7.47;;;34.30;99.90;;;;;;5032014;28;20442;-75
2023/09/10 07:49:42;;;;;;;12.52;8.00;;;34.70;99.90;;;;;;5029391;28;20427;-75
2023/09/10 07:52:08;;;;;;;13.80;7.40;;;34.90;99.90;;;;;;5013903;28;20432;-75
2023/09/10 07:54:36;;;;;;;12.68;7.90;;;34.80;99.90;;;;;;5027614;28;20494;-75
